Time;durP1;ratioP1;P1;durP2;ratioP2;P2;SDS_P1;SDS_P2;PMS_P1;PMS_P2;Temp;Humidity;BMP_temperature;BMP_pressure;BME280_temperature;BME280_humidity;BME280_pressure;Samples;Min_cycle;Max_cycle;Signal;HPM_P1;HPM_P2
2022/10/07 00:01:20;;;;;;;;;15.25;14.00;;;;;16.67;83.23;100248.25;5054753;28;46087;-72
2022/10/07 00:03:45;;;;;;;;;15.50;13.25;;;;;16.62;83.85;100247.56;5053401;28;45373;-73
2022/10/07 00:06:14;;;;;;;;;18.00;14.50;;;;;16.58;83.94;100249.53;5048024;28;45607;-73
2022/10/07 00:08:42;;;;;;;;;14.75;13.50;;;;;16.57;83.87;100253.13;5053796;28;45495;-73
2022/10/07 00:11:25;;;;;;;;;12.75;11.25;;;;;16.54;84.17;100261.25;5055947;28;45616;-73
2022/10/07 00:13:58;;;;;;;;;14.00;13.00;;;;;16.54;84.45;100255.94;5055442;28;45470;-73
2022/10/07 00:16:28;;;;;;;;;21.50;15.75;;;;;16.51;84.54;100255.22;5056383;28;45394;-73
2022/10/07 00:18:57;;;;;;;;;14.25;14.25;;;;;16.49;84.69;100255.28;5060443;28;45452;-73
2022/10/07 00:21:25;;;;;;;;;15.75;15.50;;;;;16.47;84.90;100259.81;5055896;28;46564;-73
2022/10/07 00:23:51;;;;;;;;;18.75;16.00;;;;;16.44;84.96;100256.41;5053384;28;45799;-73
2022/10/07 00:26:19;;;;;;;;;19.25;18.00;;;;;16.41;84.98;100254.78;5055000;28;45422;-73
2022/10/07 00:28:45;;;;;;;;;16.25;15.00;;;;;16.38;85.01;100250.47;5051549;28;45297;-73
2022/10/07 00:31:25;;;;;;;;;15.75;14.00;;;;;16.37;84.89;100253.19;5053714;27;47541;-73
2022/10/07 00:33:52;;;;;;;;;14.75;14.75;;;;;16.36;84.99;100251.47;5052945;28;45606;-72
2022/10/07 00:36:22;;;;;;;;;17.50;15.75;;;;;16.35;85.28;100253.25;5055810;28;45471;-72
2022/10/07 00:39:12;;;;;;;;;15.00;15.00;;;;;16.35;85.38;100252.38;5050894;28;45469;-72
2022/10/07 00:41:49;;;;;;;;;30.00;28.00;;;;;16.34;85.44;100240.88;5042450;28;46643;-72
2022/10/07 00:44:37;;;;;;;;;28.33;25.33;;;;;16.34;85.24;100245.34;5051538;28;45375;-72
2022/10/07 00:47:21;;;;;;;;;17.25;17.25;;;;;16.32;85.48;100239.22;5051812;28;45403;-73
2022/10/07 00:49:53;;;;;;;;;19.00;15.50;;;;;16.30;85.70;100239.28;5054577;28;45601;-71
2022/10/07 00:52:22;;;;;;;;;14.75;13.75;;;;;16.29;85.47;100244.69;5051771;28;46616;-71
2022/10/07 00:54:52;;;;;;;;;15.75;14.00;;;;;16.26;85.63;100243.00;5055374;28;45361;-71
2022/10/07 00:57:23;;;;;;;;;15.50;15.00;;;;;16.25;86.24;100238.66;5053288;28;45485;-73
2022/10/07 00:59:49;;;;;;;;;18.50;15.00;;;;;16.19;85.88;100240.72;5050257;28;45380;-73
2022/10/07 01:02:14;;;;;;;;;17.50;14.25;;;;;16.10;86.36;100239.31;5053526;28;45429;-73
2022/10/07 01:04:41;;;;;;;;;12.75;12.75;;;;;16.04;86.44;100236.94;5054992;28;45500;-73
2022/10/07 01:07:08;;;;;;;;;16.25;15.25;;;;;16.01;86.81;100231.75;5055036;28;45444;-73
2022/10/07 01:09:33;;;;;;;;;15.00;14.50;;;;;15.97;86.52;100231.03;5054997;28;45586;-73
2022/10/07 01:12:34;;;;;;;;;16.50;16.50;;;;;15.96;87.14;100223.13;5050110;28;45668;-73
2022/10/07 01:15:29;;;;;;;;;16.00;14.00;;;;;15.94;87.00;100219.66;5039719;28;45491;-73
2022/10/07 01:18:04;;;;;;;;;19.25;14.75;;;;;15.92;86.69;100221.53;5054415;28;45462;-73
2022/10/07 01:20:45;;;;;;;;;19.50;15.75;;;;;15.88;87.09;100226.13;5055165;27;45513;-74
2022/10/07 01:23:31;;;;;;;;;14.50;13.50;;;;;15.87;87.16;100229.72;5050763;28;46454;-73
2022/10/07 01:26:21;;;;;;;;;17.00;15.50;;;;;15.86;87.35;100221.81;5069874;28;45482;-73
2022/10/07 01:28:55;;;;;;;;;17.50;17.50;;;;;15.85;87.36;100214.75;5061230;27;45412;-73
2022/10/07 01:31:27;;;;;;;;;18.00;16.00;;;;;15.85;87.34;100225.41;5054082;28;45570;-73
2022/10/07 01:33:53;;;;;;;;;15.50;15.50;;;;;15.84;87.28;100215.69;5047361;28;46306;-73
2022/10/07 01:36:23;;;;;;;;;18.50;17.75;;;;;15.83;87.32;100209.50;5054769;28;45687;-73
2022/10/07 01:39:01;;;;;;;;;21.75;18.50;;;;;15.83;87.67;100216.63;5047613;28;45351;-73
2022/10/07 01:41:29;;;;;;;;;17.50;14.50;;;;;15.82;87.39;100210.44;5049940;28;45450;-73
2022/10/07 01:43:56;;;;;;;;;17.75;17.75;;;;;15.81;87.59;100207.84;5051031;28;45444;-73
2022/10/07 01:46:25;;;;;;;;;14.75;14.25;;;;;15.79;87.65;100197.25;5054681;28;45396;-73
2022/10/07 01:48:51;;;;;;;;;16.25;14.75;;;;;15.80;87.26;100195.47;5050003;28;45236;-73
2022/10/07 01:51:20;;;;;;;;;14.75;14.75;;;;;15.81;87.31;100192.75;5054098;28;45517;-73
2022/10/07 01:53:52;;;;;;;;;17.00;16.25;;;;;15.82;87.63;100196.28;5053648;28;46004;-73
2022/10/07 01:56:35;;;;;;;;;14.50;14.50;;;;;15.79;87.80;100199.06;5054710;28;45295;-73
2022/10/07 01:59:19;;;;;;;;;18.50;17.25;;;;;15.78;87.34;100200.84;5053735;28;45422;-73
2022/10/07 02:01:56;;;;;;;;;20.50;17.50;;;;;15.78;86.92;100192.88;5052946;28;45466;-74
2022/10/07 02:04:29;;;;;;;;;17.50;16.00;;;;;15.78;87.12;100192.88;5041317;28;45573;-71
2022/10/07 02:07:23;;;;;;;;;14.00;14.00;;;;;15.78;86.79;100198.19;5051307;28;45506;-74
2022/10/07 02:09:57;;;;;;;;;20.50;19.75;;;;;15.78;86.69;100192.88;5079278;27;45467;-73
2022/10/07 02:12:33;;;;;;;;;18.00;17.00;;;;;15.79;86.64;100191.94;5042713;28;46047;-73
2022/10/07 02:15:12;;;;;;;;;18.25;17.50;;;;;15.79;86.55;100189.28;5061725;28;48619;-73
2022/10/07 02:17:43;;;;;;;;;16.50;16.50;;;;;15.79;86.64;100191.09;5052016;28;45562;-73
2022/10/07 02:20:13;;;;;;;;;16.75;16.25;;;;;15.77;86.64;100188.50;5053883;28;45538;-73
2022/10/07 02:22:42;;;;;;;;;20.50;16.50;;;;;15.76;86.34;100188.56;5050675;28;45375;-73
2022/10/07 02:25:11;;;;;;;;;17.75;16.00;;;;;15.75;85.85;100184.19;5041508;28;45714;-73
2022/10/07 02:27:38;;;;;;;;;19.00;18.00;;;;;15.74;85.36;100179.81;5045761;28;45469;-73
2022/10/07 02:30:11;;;;;;;;;22.50;20.00;;;;;15.74;85.43;100182.47;5057251;28;45521;-73
2022/10/07 02:32:41;;;;;;;;;21.00;18.75;;;;;15.73;85.08;100176.28;5045972;28;45391;-73
2022/10/07 02:35:26;;;;;;;;;19.00;18.25;;;;;15.72;85.91;100173.69;5053883;28;45452;-73
2022/10/07 02:37:57;;;;;;;;;18.25;18.00;;;;;15.69;85.84;100178.22;5049086;28;45472;-73
2022/10/07 02:40:27;;;;;;;;;14.75;14.50;;;;;15.67;85.75;100176.53;5054211;28;45404;-73
2022/10/07 02:42:57;;;;;;;;;20.50;17.50;;;;;15.64;85.76;100168.69;5049193;28;45523;-73
2022/10/07 02:45:35;;;;;;;;;18.25;17.75;;;;;15.60;85.61;100169.75;5053434;28;46143;-73
2022/10/07 02:48:18;;;;;;;;;23.25;22.75;;;;;15.53;86.12;100168.28;5052799;28;45459;-73
2022/10/07 02:50:49;;;;;;;;;20.75;19.00;;;;;15.47;85.93;100169.41;5055126;28;45819;-74
2022/10/07 02:53:16;;;;;;;;;16.75;15.50;;;;;15.44;86.30;100169.53;5056129;28;45334;-73
2022/10/07 02:55:43;;;;;;;;;18.25;17.50;;;;;15.42;86.33;100163.41;5057189;28;45354;-73
2022/10/07 02:58:11;;;;;;;;;15.75;14.50;;;;;15.41;86.27;100163.50;5055877;28;45411;-73
2022/10/07 03:00:43;;;;;;;;;20.50;16.75;;;;;15.39;86.11;100168.03;5057092;28;45352;-73
2022/10/07 03:03:09;;;;;;;;;21.00;19.75;;;;;15.37;86.17;100160.13;5088946;27;45999;-73
2022/10/07 03:05:34;;;;;;;;;19.75;17.25;;;;;15.34;86.36;100161.09;5056968;28;45534;-73
2022/10/07 03:08:03;;;;;;;;;18.25;18.00;;;;;15.33;86.36;100163.81;5050049;28;45447;-73
2022/10/07 03:10:29;;;;;;;;;20.50;19.25;;;;;15.30;86.48;100162.16;5057255;28;45408;-73
2022/10/07 03:12:55;;;;;;;;;20.00;19.25;;;;;15.27;86.37;100159.63;5051672;28;45433;-73
2022/10/07 03:15:21;;;;;;;;;19.75;18.00;;;;;15.27;86.23;100154.31;5055364;28;48053;-73
2022/10/07 03:17:47;;;;;;;;;16.50;15.75;;;;;15.27;85.60;100153.44;5054013;28;45424;-73
2022/10/07 03:20:13;;;;;;;;;17.50;14.50;;;;;15.28;85.34;100148.06;5057010;28;45684;-73
2022/10/07 03:22:41;;;;;;;;;17.75;17.75;;;;;15.30;85.18;100148.00;5053924;28;45634;-73
2022/10/07 03:25:07;;;;;;;;;20.50;18.50;;;;;15.31;85.31;100147.94;5072071;27;46542;-73
2022/10/07 03:27:32;;;;;;;;;18.25;18.25;;;;;15.32;85.60;100149.69;5056882;28;45467;-73
2022/10/07 03:29:58;;;;;;;;;19.75;17.25;;;;;15.34;85.18;100149.63;5056541;28;45455;-73
2022/10/07 03:32:26;;;;;;;;;17.00;16.25;;;;;15.34;85.03;100144.28;5050472;28;45338;-73
2022/10/07 03:34:52;;;;;;;;;21.00;19.75;;;;;15.35;84.52;100151.34;5056374;28;46582;-79
2022/10/07 03:37:17;;;;;;;;;17.75;17.75;;;;;15.33;84.72;100148.75;5054485;28;45474;-78
2022/10/07 03:39:42;;;;;;;;;19.50;19.50;;;;;15.34;84.24;100144.28;5056691;28;45819;-78
2022/10/07 03:42:08;;;;;;;;;22.50;19.50;;;;;15.34;84.45;100146.94;5052387;28;45348;-79
2022/10/07 03:44:34;;;;;;;;;16.50;14.75;;;;;15.34;84.05;100146.94;5056448;28;46223;-79
2022/10/07 03:47:00;;;;;;;;;19.50;17.00;;;;;15.32;83.38;100147.03;5053099;28;45543;-78
2022/10/07 03:49:26;;;;;;;;;19.25;16.75;;;;;15.34;83.94;100150.47;5056833;28;45385;-79
2022/10/07 03:51:51;;;;;;;;;14.25;12.50;;;;;15.35;83.82;100144.22;5054096;28;45492;-79
2022/10/07 03:54:16;;;;;;;;;18.25;16.50;;;;;15.38;83.88;100153.88;5056343;28;46233;-77
2022/10/07 03:56:42;;;;;;;;;17.50;17.00;;;;;15.41;83.33;100144.91;5055623;28;45626;-79
2022/10/07 03:59:07;;;;;;;;;17.25;14.25;;;;;15.44;83.44;100147.41;5053746;28;45439;-79
2022/10/07 04:01:33;;;;;;;;;17.50;17.50;;;;;15.45;83.48;100143.81;5054512;28;45490;-79
2022/10/07 04:03:59;;;;;;;;;17.50;17.00;;;;;15.48;83.07;100143.69;5049844;28;45831;-79
2022/10/07 04:06:26;;;;;;;;;18.75;18.75;;;;;15.50;83.29;100134.72;5056179;28;45403;-79
2022/10/07 04:08:54;;;;;;;;;19.00;18.75;;;;;15.53;83.22;100137.25;5050376;28;45508;-79
2022/10/07 04:11:19;;;;;;;;;22.75;20.25;;;;;15.56;83.14;100139.81;5055960;28;45369;-79
2022/10/07 04:13:45;;;;;;;;;19.25;16.00;;;;;15.60;82.89;100143.19;5070993;28;46914;-79
2022/10/07 04:16:11;;;;;;;;;18.75;17.75;;;;;15.62;83.09;100147.50;5055956;28;45399;-79
2022/10/07 04:18:37;;;;;;;;;17.00;16.75;;;;;15.68;82.83;100146.38;5049974;28;45434;-79
2022/10/07 04:21:03;;;;;;;;;19.00;18.00;;;;;15.70;82.83;100148.03;5055430;28;45555;-79
2022/10/07 04:23:29;;;;;;;;;16.25;15.25;;;;;15.75;82.73;100152.28;5066064;28;47254;-79
2022/10/07 04:25:54;;;;;;;;;18.00;16.75;;;;;15.78;82.80;100141.50;5055737;28;45496;-79
2022/10/07 04:28:22;;;;;;;;;17.50;16.25;;;;;15.80;82.51;100148.47;5047450;28;45408;-79
2022/10/07 04:30:50;;;;;;;;;20.25;18.75;;;;;15.81;82.78;100146.69;5055386;28;45335;-79
2022/10/07 04:33:17;;;;;;;;;18.25;18.25;;;;;15.81;82.98;100150.19;5054745;28;46085;-79
2022/10/07 04:35:43;;;;;;;;;18.50;17.25;;;;;15.84;83.05;100146.53;5055931;28;45426;-79
2022/10/07 04:38:10;;;;;;;;;14.75;13.25;;;;;15.87;82.92;100146.41;5049331;28;45483;-79
2022/10/07 04:40:40;;;;;;;;;19.00;17.00;;;;;15.89;82.51;100141.91;5055955;28;45345;-79
2022/10/07 04:43:19;;;;;;;;;21.25;20.25;;;;;15.91;82.95;100142.69;5050933;28;45564;-79
2022/10/07 04:45:51;;;;;;;;;24.25;22.00;;;;;15.91;82.94;100138.25;5054756;28;45292;-79
2022/10/07 04:48:18;;;;;;;;;20.50;19.00;;;;;15.93;82.95;100132.81;5054139;28;45356;-79
2022/10/07 04:50:44;;;;;;;;;23.50;21.75;;;;;15.94;82.95;100130.09;5055311;28;45488;-79
2022/10/07 04:53:13;;;;;;;;;27.50;23.25;;;;;15.96;83.23;100132.69;5053752;28;45534;-78
2022/10/07 04:55:46;;;;;;;;;22.25;20.25;;;;;15.98;83.16;100128.16;5055635;28;45167;-79
2022/10/07 04:58:13;;;;;;;;;21.75;21.00;;;;;15.98;83.10;100134.34;5053286;28;45444;-77
2022/10/07 05:00:47;;;;;;;;;20.75;17.00;;;;;15.96;83.05;100128.22;5055080;28;45405;-78
2022/10/07 05:03:14;;;;;;;;;17.75;17.75;;;;;15.95;83.16;100126.50;5035851;28;46456;-79
2022/10/07 05:05:44;;;;;;;;;19.00;18.50;;;;;15.94;83.21;100118.59;5070835;27;45595;-79
2022/10/07 05:08:12;;;;;;;;;22.75;20.50;;;;;15.94;82.79;100121.25;5055074;28;45413;-79
2022/10/07 05:10:38;;;;;;;;;19.33;18.33;;;;;15.94;82.32;100123.91;5055089;28;45456;-79
2022/10/07 05:13:11;;;;;;;;;17.75;17.75;;;;;15.93;82.29;100120.38;5051738;28;45850;-79
2022/10/07 05:15:36;;;;;;;;;22.25;18.25;;;;;15.92;81.89;100116.00;5054445;28;45399;-79
2022/10/07 05:18:02;;;;;;;;;17.75;17.75;;;;;15.92;81.98;100118.66;5049857;28;45507;-79
2022/10/07 05:20:28;;;;;;;;;18.75;17.75;;;;;15.93;82.19;100123.03;5053557;28;45340;-79
2022/10/07 05:22:53;;;;;;;;;21.50;18.75;;;;;15.94;81.63;100118.59;5051188;28;47325;-78
2022/10/07 05:25:19;;;;;;;;;24.50;19.00;;;;;15.93;81.68;100115.06;5054391;28;45432;-79
2022/10/07 05:27:45;;;;;;;;;19.00;17.75;;;;;15.95;81.66;100120.31;5051715;28;45575;-79
2022/10/07 05:30:11;;;;;;;;;19.00;18.50;;;;;15.95;81.06;100120.31;5054130;28;45378;-79
2022/10/07 05:32:36;;;;;;;;;17.50;17.00;;;;;15.94;80.72;100127.44;5047437;28;45410;-79
2022/10/07 05:35:02;;;;;;;;;16.00;15.50;;;;;15.92;80.10;100117.81;5053640;28;45297;-79
2022/10/07 05:37:27;;;;;;;;;16.75;16.00;;;;;15.90;80.06;100122.34;5049915;28;45389;-78
2022/10/07 05:39:53;;;;;;;;;16.00;16.00;;;;;15.86;79.66;100134.91;5052720;28;45396;-79
2022/10/07 05:42:18;;;;;;;;;16.00;15.00;;;;;15.82;80.43;100129.78;5048530;28;45491;-80
2022/10/07 05:44:45;;;;;;;;;15.50;15.50;;;;;15.81;80.24;100128.06;5053285;28;45501;-79
2022/10/07 05:47:10;;;;;;;;;19.25;18.50;;;;;15.81;80.38;100128.06;5049900;28;45418;-79
2022/10/07 05:49:36;;;;;;;;;17.50;17.50;;;;;15.82;80.03;100129.78;5054105;28;45213;-78
2022/10/07 05:52:02;;;;;;;;;14.75;14.75;;;;;15.80;80.01;100127.19;5052297;28;45419;-79
2022/10/07 05:54:28;;;;;;;;;18.25;17.75;;;;;15.81;80.28;100120.09;5053389;28;45365;-78
2022/10/07 05:56:53;;;;;;;;;22.75;22.50;;;;;15.81;80.24;100128.06;5052930;28;45481;-79
2022/10/07 05:59:19;;;;;;;;;20.75;18.25;;;;;15.82;80.09;100124.47;5053166;27;45349;-78
2022/10/07 06:01:45;;;;;;;;;19.25;18.75;;;;;15.81;80.42;100123.59;5052473;28;46121;-79
2022/10/07 06:04:11;;;;;;;;;15.50;15.50;;;;;15.82;79.97;100133.31;5053055;28;45347;-79
2022/10/07 06:06:37;;;;;;;;;19.00;18.25;;;;;15.83;79.81;100131.53;5051609;28;45410;-78
2022/10/07 06:14:35;;;;;;;;;20.75;18.75;;;;;15.89;79.85;100131.25;5044442;28;45528;-79
2022/10/07 06:17:01;;;;;;;;;19.25;18.75;;;;;15.92;80.20;100126.63;5052440;28;45367;-78
2022/10/07 06:19:26;;;;;;;;;23.25;19.00;;;;;15.97;80.32;100132.63;5053007;28;45504;-79
2022/10/07 06:21:51;;;;;;;;;22.25;19.75;;;;;16.00;79.20;100127.16;5047854;28;46744;-78
2022/10/07 06:24:17;;;;;;;;;23.50;19.75;;;;;16.00;78.95;100132.47;5053003;28;45337;-78
2022/10/07 06:26:42;;;;;;;;;18.00;17.75;;;;;16.00;78.68;100127.16;5055101;28;45384;-78
2022/10/07 06:29:08;;;;;;;;;21.75;18.75;;;;;16.02;78.34;100125.28;5053543;28;45460;-78
2022/10/07 06:31:34;;;;;;;;;21.67;21.00;;;;;16.04;78.63;100125.22;5056231;28;45371;-78
2022/10/07 06:34:00;;;;;;;;;19.75;18.25;;;;;16.08;78.58;100125.97;5050754;28;45628;-79
2022/10/07 06:36:26;;;;;;;;;25.33;21.67;;;;;16.11;78.70;100125.78;5057042;28;45458;-79
2022/10/07 06:38:53;;;;;;;;;22.00;21.00;;;;;16.14;78.58;100123.84;5055525;28;45657;-79
2022/10/07 06:41:20;;;;;;;;;18.25;18.25;;;;;16.18;78.76;100125.44;5073233;28;46570;-79
2022/10/07 06:43:46;;;;;;;;;21.25;20.50;;;;;16.23;78.35;100127.91;5053655;28;45538;-78
2022/10/07 06:46:18;;;;;;;;;30.33;23.67;;;;;16.27;78.37;100129.44;5053608;28;45346;-78
2022/10/07 06:48:45;;;;;;;;;25.00;22.75;;;;;16.31;78.17;100123.06;5044362;28;45407;-78
2022/10/07 06:51:19;;;;;;;;;22.75;21.00;;;;;16.36;78.38;100129.91;5053184;28;46171;-78
2022/10/07 06:53:45;;;;;;;;;22.25;20.50;;;;;16.41;77.99;100135.00;5052738;28;45422;-78
2022/10/07 06:56:13;;;;;;;;;18.75;18.00;;;;;16.44;78.11;100137.50;5053896;28;45539;-79
2022/10/07 06:58:39;;;;;;;;;28.50;23.00;;;;;16.48;77.78;100136.41;5054384;28;45436;-81
2022/10/07 07:01:05;;;;;;;;;16.75;16.75;;;;;16.52;77.41;100140.66;5055943;28;45475;-78
2022/10/07 07:03:30;;;;;;;;;23.75;20.25;;;;;16.55;77.78;100139.66;5054939;28;45455;-78
2022/10/07 07:05:56;;;;;;;;;23.00;22.33;;;;;16.58;77.71;100139.53;5054682;28;45580;-78
2022/10/07 07:08:26;;;;;;;;;28.67;25.67;;;;;16.61;77.62;100142.88;5051460;28;45491;-78
2022/10/07 07:10:52;;;;;;;;;26.50;24.00;;;;;16.63;77.49;100146.34;5049917;28;47353;-78
2022/10/07 07:13:18;;;;;;;;;21.25;18.75;;;;;16.63;77.41;100137.50;5054715;28;45312;-78
2022/10/07 07:15:56;;;;;;;;;25.50;22.00;;;;;16.64;77.25;100142.75;5055695;28;45341;-77
2022/10/07 07:18:22;;;;;;;;;20.00;18.50;;;;;16.67;77.33;100142.63;5053716;28;45467;-77
2022/10/07 07:20:48;;;;;;;;;23.00;21.75;;;;;16.73;77.46;100145.00;5056037;28;45686;-73
2022/10/07 07:23:13;;;;;;;;;23.50;19.50;;;;;16.80;77.09;100145.53;5054816;28;45455;-72
2022/10/07 07:25:39;;;;;;;;;24.50;23.00;;;;;16.89;76.35;100153.09;5054422;28;45385;-72
2022/10/07 07:28:06;;;;;;;;;15.75;15.75;;;;;16.97;75.93;100148.22;5053420;28;45424;-72
2022/10/07 07:30:33;;;;;;;;;21.75;19.00;;;;;17.03;75.87;100149.72;5054604;28;45467;-72
2022/10/07 07:32:59;;;;;;;;;22.75;22.00;;;;;17.08;75.96;100143.25;5051961;28;45474;-73
2022/10/07 07:35:27;;;;;;;;;22.25;21.00;;;;;17.15;75.69;100145.56;5055842;28;45399;-73
2022/10/07 07:37:53;;;;;;;;;22.50;19.50;;;;;17.23;75.48;100146.06;5045349;28;45503;-73
2022/10/07 07:40:20;;;;;;;;;23.75;23.75;;;;;17.33;75.60;100147.31;5055304;28;45400;-72
2022/10/07 07:42:46;;;;;;;;;24.75;23.75;;;;;17.39;75.82;100139.88;5056128;28;45313;-73
2022/10/07 07:45:13;;;;;;;;;25.75;23.00;;;;;17.48;75.53;100149.19;5056022;28;45369;-72
2022/10/07 07:47:39;;;;;;;;;25.25;21.00;;;;;17.54;75.49;100148.00;5053665;28;45565;-73
2022/10/07 07:50:05;;;;;;;;;25.67;25.67;;;;;17.60;75.77;100131.66;5055864;28;46710;-72
2022/10/07 07:52:31;;;;;;;;;24.00;21.50;;;;;17.65;75.26;100149.19;5051444;28;45420;-72
2022/10/07 07:54:58;;;;;;;;;23.25;20.75;;;;;17.69;75.48;100141.91;5048797;28;45421;-72
2022/10/07 07:57:25;;;;;;;;;24.00;21.67;;;;;17.72;75.25;100134.59;5048624;27;45491;-73
2022/10/07 07:59:51;;;;;;;;;21.25;20.00;;;;;17.75;74.94;100137.13;5054394;28;45520;-73
2022/10/07 08:02:18;;;;;;;;;25.25;24.25;;;;;17.79;74.49;100135.13;5081337;27;45664;-72
2022/10/07 08:04:43;;;;;;;;;26.00;23.75;;;;;17.83;74.40;100131.34;5053232;28;45204;-72
2022/10/07 08:07:11;;;;;;;;;21.25;20.50;;;;;17.88;74.02;100134.66;5052229;28;45385;-73
2022/10/07 08:09:40;;;;;;;;;23.00;20.00;;;;;17.92;73.57;100136.22;5051306;28;46177;-72
2022/10/07 08:12:06;;;;;;;;;17.75;16.75;;;;;17.93;73.56;100129.91;5051168;28;45221;-72
2022/10/07 08:14:31;;;;;;;;;18.75;18.25;;;;;17.95;73.50;100128.00;5064079;28;45408;-74
2022/10/07 08:16:58;;;;;;;;;25.00;21.50;;;;;17.97;73.18;100125.25;5057523;28;45435;-78
2022/10/07 08:19:28;;;;;;;;;19.25;19.25;;;;;17.96;73.02;100123.53;5047505;28;46867;-78
2022/10/07 08:21:54;;;;;;;;;17.50;17.25;;;;;17.98;72.62;100119.00;5054594;28;45494;-78
2022/10/07 08:24:21;;;;;;;;;17.25;16.25;;;;;18.00;72.79;100122.44;5055599;28;45528;-79
2022/10/07 08:26:47;;;;;;;;;18.00;16.50;;;;;18.04;72.84;100122.19;5053407;28;45354;-79
2022/10/07 08:29:13;;;;;;;;;23.25;19.75;;;;;18.10;72.70;100118.31;5053539;28;45545;-79
2022/10/07 08:31:38;;;;;;;;;26.00;22.50;;;;;18.13;72.89;100115.47;5054357;28;45406;-79
2022/10/07 08:34:05;;;;;;;;;19.75;18.75;;;;;18.18;72.90;100112.56;5050310;28;45469;-79
2022/10/07 08:36:32;;;;;;;;;21.25;19.25;;;;;18.22;72.55;100109.63;5055490;28;45485;-79
2022/10/07 08:39:00;;;;;;;;;26.25;25.00;;;;;18.28;73.27;100114.63;5051135;28;46200;-79
2022/10/07 08:41:32;;;;;;;;;28.25;23.25;;;;;18.31;73.08;100109.13;5054167;28;45516;-77
2022/10/07 08:44:10;;;;;;;;;21.00;19.75;;;;;18.35;73.27;100105.34;5066779;28;45503;-79
2022/10/07 08:46:37;;;;;;;;;20.50;18.75;;;;;18.41;73.29;100109.47;5054392;28;45473;-79
2022/10/07 08:49:15;;;;;;;;;21.25;20.25;;;;;18.43;73.31;100103.06;5046518;28;45795;-79
2022/10/07 08:51:43;;;;;;;;;25.50;21.25;;;;;18.47;73.25;100098.44;5054066;28;45333;-78
2022/10/07 08:54:12;;;;;;;;;25.50;23.25;;;;;18.52;72.94;100100.84;5070255;27;45450;-79
2022/10/07 08:56:39;;;;;;;;;29.00;28.50;;;;;18.58;73.52;100093.34;5053751;28;45510;-79
2022/10/07 08:59:23;;;;;;;;;22.75;22.50;;;;;18.61;72.84;100086.97;5053058;28;46178;-79
2022/10/07 09:02:06;;;;;;;;;27.00;23.50;;;;;18.67;73.00;100075.94;5053023;28;45349;-79
2022/10/07 09:04:59;;;;;;;;;28.25;25.50;;;;;18.71;72.90;100080.19;5046733;28;45226;-79
2022/10/07 09:07:30;;;;;;;;;23.25;22.50;;;;;18.76;73.00;100081.63;5049540;28;45534;-79
2022/10/07 09:10:07;;;;;;;;;27.00;25.00;;;;;18.82;72.70;100086.59;5050712;28;46517;-77
2022/10/07 09:12:56;;;;;;;;;23.25;21.50;;;;;18.87;72.43;100082.81;5065202;28;45415;-79
2022/10/07 09:15:28;;;;;;;;;26.00;22.50;;;;;18.91;72.67;100081.69;5053980;28;45459;-78
2022/10/07 09:18:02;;;;;;;;;24.75;23.00;;;;;18.94;72.55;100078.81;5049703;28;45460;-80
2022/10/07 09:20:35;;;;;;;;;33.00;29.67;;;;;18.98;72.50;100075.00;5054382;28;46039;-79
2022/10/07 09:23:03;;;;;;;;;22.50;21.75;;;;;19.01;72.55;100075.69;5053134;28;45505;-73
2022/10/07 09:25:29;;;;;;;;;6.67;4.67;;;;;19.04;72.29;100072.84;5054570;28;45362;-73
2022/10/07 09:27:55;;;;;;;;;31.00;29.67;;;;;19.07;72.40;100074.47;5046513;28;45533;-73
2022/10/07 09:30:23;;;;;;;;;35.00;29.33;;;;;19.10;72.19;100072.47;5069900;27;46740;-73
2022/10/07 09:32:54;;;;;;;;;34.67;31.33;;;;;19.14;71.63;100071.31;5052489;28;45403;-73
2022/10/07 09:35:23;;;;;;;;;38.67;33.00;;;;;19.22;71.94;100062.88;5053951;28;45550;-73
2022/10/07 09:37:54;;;;;;;;;25.00;24.75;;;;;19.28;71.86;100069.63;5052017;28;45248;-73
2022/10/07 09:43:24;;;;;;;;;22.00;20.75;;;;;19.40;71.71;100055.53;5050284;28;45466;-73
2022/10/07 09:45:50;;;;;;;;;25.00;22.25;;;;;19.47;70.92;100059.53;5054094;28;45367;-73
2022/10/07 09:48:26;;;;;;;;;23.50;21.25;;;;;19.57;70.97;100057.19;5051388;27;45361;-73
2022/10/07 09:51:14;;;;;;;;;21.00;20.00;;;;;19.67;70.22;100053.84;5052285;28;48163;-73
2022/10/07 09:54:01;;;;;;;;;22.00;21.50;;;;;19.75;69.55;100053.38;5049211;28;45457;-73
2022/10/07 09:56:39;;;;;;;;;21.00;21.00;;;;;19.81;69.37;100048.47;5046065;28;45428;-73
2022/10/07 09:59:16;;;;;;;;;19.25;17.75;;;;;19.92;69.83;100047.81;5044526;28;45444;-73
2022/10/07 10:01:52;;;;;;;;;23.75;22.50;;;;;20.03;69.27;100047.97;5051958;28;45393;-73
2022/10/07 10:04:23;;;;;;;;;21.75;21.00;;;;;20.16;68.63;100037.34;5047833;28;45385;-73
2022/10/07 10:06:50;;;;;;;;;19.25;17.75;;;;;20.30;68.29;100028.38;5052133;28;45551;-73
2022/10/07 10:09:24;;;;;;;;;18.50;18.50;;;;;20.44;67.56;100026.56;5048592;28;45387;-73
2022/10/07 10:12:10;;;;;;;;;18.50;17.25;;;;;20.52;66.55;100021.56;5051717;28;45530;-73
2022/10/07 10:14:52;;;;;;;;;18.50;16.75;;;;;20.54;65.87;100025.00;5049742;28;45303;-73
2022/10/07 10:17:24;;;;;;;;;20.50;18.75;;;;;20.57;65.98;100017.72;5047933;28;45416;-74
2022/10/07 10:19:50;;;;;;;;;19.25;18.75;;;;;20.65;65.68;100010.00;5053816;28;45346;-73
2022/10/07 10:22:35;;;;;;;;;20.25;19.25;;;;;20.79;65.29;100009.94;5047391;28;45656;-73
2022/10/07 10:28:01;;;;;;;;;22.50;21.25;;;;;21.03;65.20;99999.38;5053820;28;45325;-73
2022/10/07 10:30:29;;;;;;;;;24.00;22.50;;;;;21.12;64.48;99991.53;5050374;28;45231;-73
2022/10/07 10:33:21;;;;;;;;;16.25;15.25;;;;;21.19;63.83;99990.19;5052095;28;46353;-73
2022/10/07 10:36:23;;;;;;;;;19.00;17.50;;;;;21.28;63.23;99977.09;5055124;27;45424;-73
2022/10/07 10:39:10;;;;;;;;;19.75;18.25;;;;;21.36;63.13;99975.56;5010689;28;45989;-73
2022/10/07 10:41:50;;;;;;;;;19.75;19.75;;;;;21.43;62.66;99974.19;5050171;28;45461;-73
2022/10/07 10:44:31;;;;;;;;;20.50;19.25;;;;;21.46;61.84;99959.66;5050722;28;46579;-73
2022/10/07 10:47:14;;;;;;;;;16.40;16.20;;;;;21.47;62.05;99956.03;5046872;28;45631;-73
2022/10/07 10:50:01;;;;;;;;;15.25;14.25;;;;;21.51;60.71;99958.38;5048012;28;45523;-73
2022/10/07 10:53:12;;;;;;;;;16.00;16.00;;;;;21.58;60.74;99959.66;5067180;28;46598;-73
2022/10/07 10:56:05;;;;;;;;;14.75;14.00;;;;;21.69;60.73;99945.47;5042823;28;45497;-73
2022/10/07 10:59:08;;;;;;;;;17.60;16.80;;;;;21.73;59.95;99938.91;5040574;28;45472;-74
2022/10/07 11:01:37;;;;;;;;;18.25;15.50;;;;;21.76;60.70;99930.63;5044197;28;45410;-73
2022/10/07 11:04:08;;;;;;;;;14.50;14.50;;;;;21.78;59.57;99933.22;5040217;28;45461;-73
2022/10/07 11:06:37;;;;;;;;;17.50;17.00;;;;;21.72;59.34;99931.81;5052871;28;45494;-73
2022/10/07 11:09:05;;;;;;;;;22.50;19.75;;;;;21.71;61.02;99921.19;5052217;28;45475;-73
2022/10/07 11:11:33;;;;;;;;;17.75;17.00;;;;;21.75;61.01;99910.13;5055331;28;45449;-73
2022/10/07 11:14:13;;;;;;;;;22.25;20.00;;;;;21.78;61.22;99909.06;5048440;28;45658;-74
2022/10/07 11:16:38;;;;;;;;;17.00;17.00;;;;;21.76;60.68;99908.31;5055335;28;46214;-73
2022/10/07 11:19:07;;;;;;;;;15.25;14.25;;;;;21.73;60.73;99904.00;5086865;27;45495;-73
2022/10/07 11:21:38;;;;;;;;;21.25;19.25;;;;;21.69;61.59;99898.97;5056376;28;45341;-73
2022/10/07 11:24:25;;;;;;;;;19.50;18.25;;;;;21.67;60.87;99891.03;5052752;28;45642;-73
2022/10/07 11:27:15;;;;;;;;;18.75;16.75;;;;;21.63;60.53;99884.16;5051619;28;48125;-73
2022/10/07 11:29:55;;;;;;;;;20.25;18.50;;;;;21.63;60.87;99891.38;5051949;28;45400;-73
2022/10/07 11:32:34;;;;;;;;;18.50;17.50;;;;;21.61;61.12;99880.78;5052834;28;45420;-74
2022/10/07 11:35:22;;;;;;;;;18.75;17.25;;;;;21.60;60.28;99887.09;5056182;28;45424;-73
2022/10/07 11:37:59;;;;;;;;;18.00;14.00;;;;;21.56;60.60;99883.78;5052381;28;45467;-73